Time;durP1;ratioP1;P1;durP2;ratioP2;P2;SDS_P1;SDS_P2;PMS_P1;PMS_P2;Temp;Humidity;BMP_temperature;BMP_pressure;BME280_temperature;BME280_humidity;BME280_pressure;Samples;Min_cycle;Max_cycle;Signal;HPM_P1;HPM_P2
2023/06/22 00:02:27;;;;;;;10.27;8.10;;;;;;;19.65;100.00;98159.53;5073024;28;20211;-77
2023/06/22 00:04:53;;;;;;;8.43;7.63;;;;;;;19.65;100.00;98148.78;5073124;28;20592;-76
2023/06/22 00:07:20;;;;;;;8.30;7.50;;;;;;;19.63;100.00;98154.31;5073127;28;20216;-76
2023/06/22 00:09:46;;;;;;;8.50;7.70;;;;;;;19.60;100.00;98165.38;5072592;28;20265;-76
2023/06/22 00:12:13;;;;;;;8.97;8.03;;;;;;;19.57;100.00;98163.00;5072988;28;20609;-76
2023/06/22 00:14:39;;;;;;;8.97;8.07;;;;;;;19.54;100.00;98166.03;5072865;28;20302;-76
2023/06/22 00:17:06;;;;;;;8.70;7.80;;;;;;;19.53;100.00;98152.75;5072765;28;20272;-76
2023/06/22 00:19:35;;;;;;;8.23;7.43;;;;;;;19.46;100.00;98152.59;5072834;28;20310;-76
2023/06/22 00:22:03;;;;;;;9.83;8.53;;;;;;;19.44;100.00;98157.25;5072953;28;20203;-76
2023/06/22 00:24:29;;;;;;;9.03;8.17;;;;;;;19.43;100.00;98152.03;5072906;28;20256;-76
2023/06/22 00:26:56;;;;;;;9.77;8.50;;;;;;;19.43;100.00;98147.53;5073227;28;20210;-76
2023/06/22 00:29:22;;;;;;;9.40;8.50;;;;;;;19.45;100.00;98156.25;5073107;28;20223;-76
2023/06/22 00:31:49;;;;;;;9.50;8.60;;;;;;;19.45;100.00;98156.25;5074140;28;20215;-76
2023/06/22 00:34:16;;;;;;;9.27;8.37;;;;;;;19.46;100.00;98152.59;5074556;28;20679;-76
2023/06/22 00:36:44;;;;;;;9.73;8.63;;;;;;;19.45;100.00;98145.53;5074399;28;20206;-76
2023/06/22 00:39:10;;;;;;;9.37;8.47;;;;;;;19.44;100.00;98133.13;5074869;28;20228;-76
2023/06/22 00:41:37;;;;;;;9.03;8.13;;;;;;;19.41;100.00;98136.13;5074060;28;20680;-76
2023/06/22 00:44:03;;;;;;;9.40;8.27;;;;;;;19.42;100.00;98151.22;5073962;28;20677;-76
2023/06/22 00:46:30;;;;;;;8.87;7.97;;;;;;;19.47;100.00;98146.22;5074008;28;20239;-76
2023/06/22 00:48:57;;;;;;;9.23;8.20;;;;;;;19.49;100.00;98130.81;5038344;28;1044646;-76
2023/06/22 00:51:24;;;;;;;9.83;8.93;;;;;;;19.46;100.00;98146.38;5074559;28;20676;-76
2023/06/22 00:53:53;;;;;;;10.13;9.13;;;;;;;19.47;100.00;98140.84;5074614;28;20210;-75
2023/06/22 00:56:24;;;;;;;9.07;8.17;;;;;;;19.49;100.00;98151.41;5079403;28;20208;-76
2023/06/22 00:58:52;;;;;;;10.70;9.60;;;;;;;19.57;100.00;98191.66;5095312;28;20203;-76
2023/06/22 01:01:22;;;;;;;10.03;9.00;;;;;;;19.65;100.00;98199.75;5092524;28;20210;-76
2023/06/22 01:03:50;;;;;;;11.30;9.33;;;;;;;19.65;100.00;98181.81;5085363;28;20207;-76
2023/06/22 01:06:26;;;;;;;11.47;8.90;;;;;;;19.63;100.00;98167.72;5085834;28;20226;-76
2023/06/22 01:09:02;;;;;;;12.73;10.57;;;;;;;19.58;100.00;98199.53;5082000;28;20226;-76
2023/06/22 01:11:36;;;;;;;11.37;9.50;;;;;;;19.64;100.00;98235.59;5098126;28;20203;-76
2023/06/22 01:14:08;;;;;;;11.07;9.57;;;;;;;19.75;100.00;98221.94;5098147;28;20195;-76
2023/06/22 01:16:37;;;;;;;10.47;9.37;;;;;;;19.86;100.00;98181.38;5097637;28;20226;-76
2023/06/22 01:19:18;;;;;;;12.30;9.33;;;;;;;19.95;100.00;98197.38;5089986;28;20226;-75
2023/06/22 01:21:46;;;;;;;10.43;9.33;;;;;;;20.00;100.00;98227.22;5097549;28;20257;-76
2023/06/22 01:24:21;;;;;;;10.97;9.87;;;;;;;19.99;100.00;98201.38;5092741;28;20200;-75
2023/06/22 01:26:58;;;;;;;9.87;8.87;;;;;;;20.03;100.00;98181.28;5097699;28;20233;-75
2023/06/22 01:29:27;;;;;;;10.17;9.17;;;;;;;19.92;100.00;98186.94;5096696;28;20227;-76
2023/06/22 01:31:56;;;;;;;10.47;9.23;;;;;;;19.83;100.00;98198.66;5094132;28;20203;-76
2023/06/22 01:34:24;;;;;;;11.40;9.20;;;;;;;19.84;100.00;98178.03;5097336;28;20187;-76
2023/06/22 01:36:53;;;;;;;11.90;9.30;;;;;;;19.80;100.00;98184.75;5097522;28;20219;-75
2023/06/22 01:39:21;;;;;;;11.43;8.80;;;;;;;19.74;100.00;98191.56;5096311;28;20234;-76
2023/06/22 01:41:49;;;;;;;12.77;10.10;;;;;;;19.76;100.00;98197.59;5096796;28;20209;-76
2023/06/22 01:44:16;;;;;;;9.70;8.70;;;;;;;19.77;100.00;98188.59;5097203;28;20194;-76
2023/06/22 01:46:46;;;;;;;9.47;8.57;;;;;;;19.67;100.00;98181.63;5097235;28;20248;-76
2023/06/22 01:49:13;;;;;;;9.63;7.97;;;;;;;19.58;100.00;98188.81;5096524;28;20227;-76
2023/06/22 01:51:39;;;;;;;10.87;8.80;;;;;;;19.53;100.00;98175.06;5093636;28;20244;-76
2023/06/22 01:54:07;;;;;;;9.43;8.27;;;;;;;19.46;100.00;98174.03;5075279;28;20210;-76
2023/06/22 01:56:34;;;;;;;8.87;7.97;;;;;;;19.45;100.00;98177.69;5076067;28;20212;-76
2023/06/22 01:59:06;;;;;;;10.07;8.57;;;;;;;19.39;100.00;98175.66;5074595;28;20238;-76
2023/06/22 02:01:41;;;;;;;9.60;7.97;;;;;;;19.33;100.00;98186.19;5073833;28;20251;-76
2023/06/22 02:04:14;;;;;;;9.40;8.50;;;;;;;19.31;100.00;98189.00;5073024;28;20202;-75
2023/06/22 02:06:43;;;;;;;10.43;8.50;;;;;;;19.33;100.00;98189.69;5073206;28;20207;-76
2023/06/22 02:09:15;;;;;;;9.27;7.93;;;;;;;19.34;100.00;98186.03;5072649;28;20231;-76
2023/06/22 02:11:45;;;;;;;9.50;8.50;;;;;;;19.27;100.00;98184.97;5073319;28;20192;-76
2023/06/22 02:14:13;;;;;;;11.40;8.50;;;;;;;19.18;100.00;98183.22;5072943;28;20216;-76
2023/06/22 02:16:41;;;;;;;10.30;8.77;;;;;;;19.11;100.00;98195.56;5073299;28;20561;-76
2023/06/22 02:19:09;;;;;;;10.60;7.90;;;;;;;19.10;100.00;98201.91;5073020;28;20240;-76
2023/06/22 02:21:35;;;;;;;12.60;8.73;;;;;;;19.12;100.00;98191.03;5072453;28;20250;-76
2023/06/22 02:24:02;;;;;;;8.83;7.70;;;;;;;19.04;100.00;98186.47;5072810;28;20207;-76
2023/06/22 02:26:29;;;;;;;8.50;7.53;;;;;;;19.02;100.00;98190.31;5073478;28;20227;-76
2023/06/22 02:28:55;;;;;;;9.30;8.23;;;;;;;18.97;100.00;98193.44;5075131;28;20211;-76
2023/06/22 02:31:22;;;;;;;9.93;8.90;;;;;;;18.92;100.00;98179.69;5073095;28;20214;-75
2023/06/22 02:33:48;;;;;;;9.00;7.47;;;;;;;18.88;100.00;98172.09;5073516;28;20208;-76
2023/06/22 02:36:22;;;;;;;9.30;8.17;;;;;;;18.86;100.00;98174.09;5073401;28;20235;-76
2023/06/22 02:38:49;;;;;;;10.77;9.33;;;;;;;18.91;100.00;98178.00;5073409;28;20207;-76
2023/06/22 02:41:17;;;;;;;11.27;9.40;;;;;;;18.93;100.00;98167.13;5072478;28;20212;-76
2023/06/22 02:43:45;;;;;;;11.47;8.50;;;;;;;18.85;100.00;98167.94;5072107;28;20207;-76
2023/06/22 02:46:12;;;;;;;8.90;7.87;;;;;;;18.78;100.00;98156.13;5071475;28;20281;-77
2023/06/22 02:48:39;;;;;;;11.77;8.57;;;;;;;18.78;100.00;98166.84;5071266;28;20262;-76
2023/06/22 02:51:05;;;;;;;10.67;9.10;;;;;;;18.81;100.00;98158.50;5085527;22;20238;-75
2023/06/22 02:53:33;;;;;;;9.20;8.30;;;;;;;18.79;100.00;98157.00;5071129;28;20213;-75
2023/06/22 02:56:01;;;;;;;10.97;9.17;;;;;;;18.79;100.00;98151.63;5071313;28;20204;-76
2023/06/22 02:58:28;;;;;;;11.07;9.80;;;;;;;18.87;100.00;98149.84;5071185;28;20254;-76
2023/06/22 03:00:54;;;;;;;11.53;9.40;;;;;;;18.86;100.00;98153.53;5070841;28;20243;-75
2023/06/22 03:03:21;;;;;;;10.60;9.13;;;;;;;18.80;100.00;98147.94;5070969;28;20707;-76
2023/06/22 03:05:47;;;;;;;11.60;8.77;;;;;;;18.72;100.00;98140.69;5070806;28;20607;-76
2023/06/22 03:08:14;;;;;;;9.07;8.17;;;;;;;18.66;100.00;98146.66;5077474;28;20206;-76
2023/06/22 03:10:42;;;;;;;9.07;8.17;;;;;;;18.58;100.00;98146.63;5077427;28;20254;-76
2023/06/22 03:13:08;;;;;;;9.43;8.00;;;;;;;18.52;100.00;98138.38;5077824;28;20212;-76
2023/06/22 03:15:34;;;;;;;10.80;8.60;;;;;;;18.49;100.00;98141.34;5077856;28;20571;-75
2023/06/22 03:18:01;;;;;;;12.23;8.67;;;;;;;18.43;100.00;98132.13;5077631;28;20234;-76
2023/06/22 03:20:33;;;;;;;10.57;8.40;;;;;;;18.40;100.00;98137.75;5077090;28;20234;-76
2023/06/22 03:23:00;;;;;;;11.27;8.43;;;;;;;18.36;100.00;98133.72;5077789;28;20262;-76
2023/06/22 03:25:26;;;;;;;13.20;10.03;;;;;;;18.42;100.00;98130.41;5077587;28;20211;-76
2023/06/22 03:27:54;;;;;;;12.23;9.23;;;;;;;18.39;100.00;98133.41;5077613;28;20543;-76
2023/06/22 03:30:20;;;;;;;9.40;8.03;;;;;;;18.34;100.00;98134.88;5077180;28;20230;-76
2023/06/22 03:32:47;;;;;;;9.70;8.33;;;;;;;18.30;100.00;98131.63;5077520;28;20215;-76
2023/06/22 03:35:14;;;;;;;10.30;9.20;;;;;;;18.28;100.00;98122.91;5077274;28;20237;-76
2023/06/22 03:37:41;;;;;;;10.27;8.70;;;;;;;18.28;100.00;98125.59;5077395;28;20199;-76
2023/06/22 03:40:08;;;;;;;9.47;8.10;;;;;;;18.29;100.00;98129.94;5077210;28;20227;-76
2023/06/22 03:42:35;;;;;;;10.70;9.10;;;;;;;18.32;100.00;98132.34;5077440;28;20207;-76
2023/06/22 03:45:04;;;;;;;9.37;8.47;;;;;;;18.35;100.00;98126.69;5077445;28;20215;-76
2023/06/22 03:47:30;;;;;;;10.10;9.00;;;;;;;18.36;100.00;98128.34;5077111;28;20227;-76
2023/06/22 03:49:57;;;;;;;10.33;8.90;;;;;;;18.38;100.00;98131.75;5077081;28;20288;-76
2023/06/22 03:52:25;;;;;;;11.37;9.17;;;;;;;18.38;100.00;98126.38;5077413;28;20241;-76
2023/06/22 03:54:51;;;;;;;8.87;7.97;;;;;;;18.40;100.00;98119.03;5077553;28;20214;-76
2023/06/22 03:57:18;;;;;;;10.47;8.33;;;;;;;18.41;100.00;98118.03;5077300;28;20213;-76
2023/06/22 03:59:44;;;;;;;9.77;8.77;;;;;;;18.40;100.00;98119.03;5076906;28;20235;-76
2023/06/22 04:02:12;;;;;;;11.83;9.43;;;;;;;18.40;100.00;98121.72;5077255;28;20678;-76
2023/06/22 04:04:39;;;;;;;10.50;9.40;;;;;;;18.38;100.00;98117.50;5077147;28;20214;-76
2023/06/22 04:07:06;;;;;;;10.50;9.07;;;;;;;18.44;100.00;98120.41;5077304;28;20656;-76
2023/06/22 04:09:32;;;;;;;12.40;9.40;;;;;;;18.48;100.00;98121.75;5076874;28;20329;-76
2023/06/22 04:11:59;;;;;;;10.57;8.93;;;;;;;18.54;100.00;98126.50;5077189;28;20216;-76
2023/06/22 04:14:25;;;;;;;9.87;8.67;;;;;;;18.61;100.00;98127.59;5077097;28;20215;-76
2023/06/22 04:16:52;;;;;;;12.03;8.83;;;;;;;18.68;100.00;98122.44;5076977;28;20225;-76
2023/06/22 04:19:20;;;;;;;10.40;9.30;;;;;;;18.76;100.00;98103.72;5073132;28;20572;-76
2023/06/22 04:21:48;;;;;;;10.83;9.57;;;;;;;18.89;100.00;98109.53;5073953;28;20209;-76
2023/06/22 04:24:15;;;;;;;10.90;9.70;;;;;;;18.95;100.00;98115.06;5074022;28;20245;-76
2023/06/22 04:26:42;;;;;;;9.90;8.90;;;;;;;18.99;100.00;98116.44;5073638;28;20239;-76
2023/06/22 04:29:09;;;;;;;10.53;8.93;;;;;;;19.03;100.00;98112.44;5073442;28;20213;-76
2023/06/22 04:31:36;;;;;;;10.87;8.03;;;;;;;19.09;100.00;98110.97;5073669;28;20650;-75
2023/06/22 04:34:06;;;;;;;9.83;8.83;;;;;;;19.17;100.00;98108.34;5073587;28;20211;-76
2023/06/22 04:36:37;;;;;;;12.13;9.43;;;;;;;19.24;100.00;98104.91;5073785;28;20583;-76
2023/06/22 04:39:05;;;;;;;10.00;8.80;;;;;;;19.32;100.00;98102.25;5073457;28;20217;-76
2023/06/22 04:41:41;;;;;;;9.70;8.80;;;;;;;19.37;100.00;98104.44;5073405;28;20218;-76
2023/06/22 04:44:08;;;;;;;11.67;10.07;;;;;;;19.48;100.00;98102.31;5073363;28;20743;-76
2023/06/22 04:46:38;;;;;;;12.33;9.70;;;;;;;19.52;100.00;98109.00;5073474;28;20235;-76
2023/06/22 04:49:09;;;;;;;9.27;8.37;;;;;;;19.61;100.00;98104.53;5073323;28;20219;-76
2023/06/22 04:51:40;;;;;;;10.93;9.17;;;;;;;19.66;100.00;98103.06;5073149;28;20225;-76
2023/06/22 04:54:07;;;;;;;12.37;9.57;;;;;;;19.80;100.00;98098.91;5073205;28;20708;-76
2023/06/22 04:56:33;;;;;;;10.13;9.07;;;;;;;19.89;100.00;98100.59;5073178;28;20596;-76
2023/06/22 04:59:00;;;;;;;11.70;9.30;;;;;;;20.02;100.00;98091.06;5073334;28;20214;-76
2023/06/22 05:01:27;;;;;;;11.40;8.83;;;;;;;20.28;100.00;98093.63;5072992;28;20235;-76
2023/06/22 05:03:55;;;;;;;11.13;8.90;;;;;;;20.55;100.00;98102.19;5073003;28;20211;-75
2023/06/22 05:06:24;;;;;;;9.37;8.13;;;;;;;20.92;100.00;98094.44;5072988;28;20259;-76
2023/06/22 05:08:52;;;;;;;9.70;8.57;;;;;;;21.36;100.00;98084.91;5072858;28;20377;-76
2023/06/22 05:11:18;;;;;;;9.73;8.60;;;;;;;21.71;100.00;98089.81;5072512;28;20712;-76
2023/06/22 05:13:45;;;;;;;10.97;8.80;;;;;;;22.15;100.00;98090.91;5072978;28;20236;-76
2023/06/22 05:16:11;;;;;;;12.93;9.30;;;;;;;22.42;100.00;98098.41;5072938;28;20215;-76
2023/06/22 05:18:38;;;;;;;10.17;7.60;;;;;;;22.67;100.00;98099.91;5072887;28;20213;-76
2023/06/22 05:21:04;;;;;;;9.73;7.90;;;;;;;23.00;100.00;98090.50;5072416;28;20230;-76
2023/06/22 05:23:31;;;;;;;13.00;9.00;;;;;;;23.32;100.00;98094.72;5072475;28;20204;-76
2023/06/22 05:25:59;;;;;;;10.10;7.70;;;;;;;23.58;97.81;98087.81;5072458;28;20670;-75
2023/06/22 05:28:25;;;;;;;8.80;7.87;;;;;;;23.81;95.02;98085.84;5072635;28;20207;-75
2023/06/22 05:30:52;;;;;;;9.13;7.23;;;;;;;24.03;92.87;98079.44;5072051;28;20584;-76
2023/06/22 05:33:18;;;;;;;11.13;8.50;;;;;;;24.14;91.03;98070.84;5072301;28;20200;-75
2023/06/22 05:35:44;;;;;;;11.10;8.13;;;;;;;24.29;91.39;98073.50;5072303;28;20218;-75
2023/06/22 05:38:11;;;;;;;9.80;8.40;;;;;;;24.53;90.08;98076.66;5072209;28;20571;-75
2023/06/22 05:40:37;;;;;;;9.47;7.30;;;;;;;24.79;86.53;98074.19;5072076;28;20227;-75
2023/06/22 05:43:05;;;;;;;8.63;7.70;;;;;;;24.99;85.50;98074.34;5072344;28;20590;-76
2023/06/22 05:45:32;;;;;;;11.63;7.63;;;;;;;25.09;83.76;98067.53;5072298;28;20214;-76
2023/06/22 05:47:58;;;;;;;9.23;7.30;;;;;;;25.30;83.60;98081.00;5072155;28;20238;-76
2023/06/22 05:50:25;;;;;;;10.60;7.50;;;;;;;25.37;82.33;98070.25;5071458;28;20762;-76
2023/06/22 05:52:51;;;;;;;9.07;7.63;;;;;;;25.42;81.77;98071.31;5071899;28;20211;-76
2023/06/22 05:55:18;;;;;;;11.37;7.80;;;;;;;25.31;82.33;98079.97;5071885;28;20215;-77
2023/06/22 05:57:45;;;;;;;8.63;7.73;;;;;;;25.39;82.53;98077.13;5071779;28;20646;-77
2023/06/22 06:00:14;;;;;;;8.90;7.33;;;;;;;25.39;82.96;98063.59;5071765;28;20223;-76
2023/06/22 06:02:43;;;;;;;8.37;6.77;;;;;;;25.27;83.20;98075.16;5071726;28;20300;-76
2023/06/22 06:05:10;;;;;;;10.73;7.33;;;;;;;25.02;83.91;98071.22;5071717;28;20239;-76
2023/06/22 06:07:37;;;;;;;10.03;7.37;;;;;;;24.75;84.70;98078.31;5071487;28;20234;-77
2023/06/22 06:10:04;;;;;;;9.33;7.20;;;;;;;24.72;86.50;98081.41;5071690;28;20249;-77
2023/06/22 06:12:31;;;;;;;9.27;7.30;;;;;;;24.77;87.44;98084.38;5071918;28;20766;-77
2023/06/22 06:14:57;;;;;;;8.47;7.33;;;;;;;24.78;87.53;98075.22;5071684;28;20234;-77
2023/06/22 06:17:25;;;;;;;7.93;6.90;;;;;;;24.83;87.63;98056.56;5071577;28;20588;-78
2023/06/22 06:19:52;;;;;;;8.60;7.70;;;;;;;24.87;87.46;98063.22;5071235;28;20238;-79
2023/06/22 06:22:20;;;;;;;9.00;7.10;;;;;;;25.04;86.25;98061.88;5071632;28;20560;-77
2023/06/22 06:24:48;;;;;;;8.93;8.00;;;;;;;25.34;84.37;98062.50;5071769;28;20222;-77
2023/06/22 06:27:14;;;;;;;8.63;7.73;;;;;;;25.65;79.01;98042.06;5071563;28;20586;-78
2023/06/22 06:29:41;;;;;;;11.23;7.93;;;;;;;25.89;77.36;98049.63;5071140;28;20231;-77
2023/06/22 06:32:09;;;;;;;8.70;7.37;;;;;;;26.21;75.68;98038.06;5071199;28;20211;-76
2023/06/22 06:34:36;;;;;;;8.57;7.03;;;;;;;26.39;74.06;98042.91;5071455;28;20204;-76
2023/06/22 06:37:03;;;;;;;8.70;7.67;;;;;;;26.71;73.75;98042.09;5071558;28;20203;-76
2023/06/22 06:39:30;;;;;;;8.50;7.60;;;;;;;26.94;72.59;98040.59;5071207;28;20239;-76
2023/06/22 06:41:56;;;;;;;8.20;7.30;;;;;;;27.17;71.30;98035.59;5070395;28;20222;-76
2023/06/22 06:44:23;;;;;;;7.87;6.53;;;;;;;27.49;70.65;98042.81;5071167;28;20207;-76
2023/06/22 06:46:50;;;;;;;8.70;7.07;;;;;;;27.66;69.46;98041.28;5069463;28;20454;-76
2023/06/22 06:49:16;;;;;;;9.90;7.23;;;;;;;27.80;68.20;98043.75;5069527;28;20264;-76
2023/06/22 06:51:44;;;;;;;9.37;6.37;;;;;;;27.90;65.64;98032.41;5070569;28;20210;-77
2023/06/22 06:54:10;;;;;;;8.03;6.37;;;;;;;27.87;64.94;98038.28;5070423;28;20290;-76
2023/06/22 06:56:37;;;;;;;8.00;6.50;;;;;;;28.00;65.28;98040.94;5069909;28;20211;-76
2023/06/22 06:59:03;;;;;;;9.67;6.83;;;;;;;28.12;64.82;98042.72;5070068;28;20222;-76
2023/06/22 07:01:33;;;;;;;9.37;6.73;;;;;;;28.24;65.37;98035.56;5069688;28;20230;-76
2023/06/22 07:03:59;;;;;;;7.20;6.50;;;;;;;28.21;63.48;98018.84;5070234;28;20434;-76
2023/06/22 07:06:28;;;;;;;8.43;6.10;;;;;;;28.12;64.20;98022.91;5069611;28;20207;-76
2023/06/22 07:08:57;;;;;;;9.20;6.32;;;;;;;28.02;63.98;98019.81;5070232;28;20264;-76
2023/06/22 07:11:23;;;;;;;7.72;6.22;;;;;;;27.73;66.06;98034.78;5070720;28;20230;-76
2023/06/22 07:13:50;;;;;;;7.13;5.80;;;;;;;27.41;67.64;98034.91;5069483;28;20230;-76
2023/06/22 07:16:16;;;;;;;7.87;5.87;;;;;;;27.04;69.88;98035.59;5070751;28;20304;-76
2023/06/22 07:18:42;;;;;;;7.47;6.00;;;;;;;26.66;73.19;98031.88;5070937;28;20211;-76
2023/06/22 07:21:09;;;;;;;7.43;6.23;;;;;;;26.44;73.72;98033.09;5070678;28;20333;-77
2023/06/22 07:23:36;;;;;;;7.57;5.60;;;;;;;26.25;76.30;98033.91;5070862;28;20642;-76
2023/06/22 07:26:06;;;;;;;6.93;5.60;;;;;;;26.13;76.99;98024.72;5070853;28;20222;-77
2023/06/22 07:28:36;;;;;;;7.17;5.47;;;;;;;26.16;77.36;98021.59;5070787;28;20281;-75
2023/06/22 07:31:03;;;;;;;7.60;5.93;;;;;;;26.11;77.58;98012.44;5070664;28;20274;-77
2023/06/22 07:33:30;;;;;;;8.37;6.10;;;;;;;26.11;78.15;98012.44;5070773;28;20705;-76
2023/06/22 07:35:56;;;;;;;6.28;5.63;;;;;;;26.14;78.16;98012.84;5070930;28;20210;-76
2023/06/22 07:38:23;;;;;;;5.90;5.30;;;;;;;26.24;77.84;98009.72;5070708;28;20208;-76
2023/06/22 07:40:50;;;;;;;7.03;5.23;;;;;;;26.26;78.30;98005.78;5070309;28;20239;-76
2023/06/22 07:43:18;;;;;;;7.27;5.60;;;;;;;26.35;77.63;97992.84;5070586;28;20237;-77
2023/06/22 07:45:51;;;;;;;6.50;5.70;;;;;;;26.41;77.65;97990.16;5070791;28;20589;-76
2023/06/22 07:48:18;;;;;;;8.27;6.13;;;;;;;26.45;76.68;97983.25;5070707;28;20231;-76
2023/06/22 07:50:45;;;;;;;6.10;5.47;;;;;;;26.56;75.55;97982.66;5070061;28;20721;-77
2023/06/22 07:53:11;;;;;;;5.77;5.17;;;;;;;26.63;75.33;97972.63;5071874;28;20219;-77
2023/06/22 07:55:38;;;;;;;8.77;5.37;;;;;;;26.67;77.21;97979.31;5074228;28;20242;-77
2023/06/22 07:58:04;;;;;;;7.03;5.00;;;;;;;26.76;75.82;97967.19;5074385;28;20206;-77
2023/06/22 08:00:33;;;;;;;7.10;5.07;;;;;;;26.79;72.40;97957.81;5073868;28;20238;-78
2023/06/22 08:02:59;;;;;;;8.67;4.97;;;;;;;26.83;71.68;97951.75;5074246;28;20207;-77
2023/06/22 08:05:26;;;;;;;6.53;5.33;;;;;;;26.83;71.25;97948.22;5074112;28;20207;-76
2023/06/22 08:07:53;;;;;;;5.33;4.80;;;;;;;26.92;72.25;97958.63;5073828;28;20253;-77
2023/06/22 08:10:19;;;;;;;6.70;4.80;;;;;;;27.00;71.79;97971.94;5073638;28;20231;-77
2023/06/22 08:12:46;;;;;;;6.60;5.03;;;;;;;27.12;72.33;97978.38;5073982;28;20203;-76
2023/06/22 08:15:12;;;;;;;6.30;4.80;;;;;;;27.17;71.27;97989.47;5073996;28;20215;-77
2023/06/22 08:17:40;;;;;;;8.13;4.90;;;;;;;27.28;71.72;97996.94;5073993;28;20269;-77
2023/06/22 08:20:11;;;;;;;5.90;4.77;;;;;;;27.27;68.09;97984.44;5073641;28;20223;-77
2023/06/22 08:22:38;;;;;;;6.65;5.13;;;;;;;27.46;69.50;97991.66;5073694;28;20726;-77
2023/06/22 08:25:06;;;;;;;6.03;5.07;;;;;;;27.58;66.84;97984.50;5073999;28;20207;-77
2023/06/22 08:27:32;;;;;;;6.80;4.67;;;;;;;27.72;66.50;97988.81;5073855;28;20322;-77
2023/06/22 08:29:59;;;;;;;5.17;4.43;;;;;;;27.90;66.65;97999.81;5073203;28;20231;-74
2023/06/22 08:32:27;;;;;;;5.30;4.13;;;;;;;28.07;64.87;97990.09;5073621;28;20731;-74
2023/06/22 08:34:55;;;;;;;5.53;4.20;;;;;;;28.30;65.57;98006.66;5073618;28;20294;-76
2023/06/22 08:37:30;;;;;;;5.15;4.28;;;;;;;28.53;67.92;98017.78;5073348;28;20208;-75
2023/06/22 08:39:57;;;;;;;5.78;4.53;;;;;;;28.68;66.56;98010.16;5073429;28;20638;-74
2023/06/22 08:42:24;;;;;;;6.32;4.43;;;;;;;28.69;63.70;98001.78;5073379;28;20218;-76
2023/06/22 08:44:51;;;;;;;9.32;4.57;;;;;;;28.67;64.89;98011.22;5073433;28;20211;-76
2023/06/22 08:47:17;;;;;;;6.18;4.55;;;;;;;28.63;66.19;97997.22;5073315;28;20227;-78
2023/06/22 08:49:44;;;;;;;5.63;4.65;;;;;;;28.59;64.94;97992.44;5072768;28;20247;-75
2023/06/22 08:52:12;;;;;;;5.65;4.57;;;;;;;28.47;64.83;97992.34;5073465;28;20203;-74
2023/06/22 08:54:38;;;;;;;5.60;4.40;;;;;;;28.50;64.82;97996.50;5073149;28;20211;-75
2023/06/22 08:57:05;;;;;;;7.60;4.85;;;;;;;28.55;65.17;97993.94;5073218;28;20278;-75
2023/06/22 08:59:32;;;;;;;7.03;5.00;;;;;;;28.66;64.20;97988.59;5072580;28;20235;-75
2023/06/22 09:01:58;;;;;;;7.88;5.30;;;;;;;28.75;58.48;97961.94;5072116;28;20946;-75
2023/06/22 09:04:28;;;;;;;4.85;4.40;;;;;;;29.08;59.90;97976.91;5072219;28;20210;-74
2023/06/22 09:06:55;;;;;;;7.22;5.15;;;;;;;28.91;57.71;97962.19;5073180;28;20258;-76
2023/06/22 09:09:23;;;;;;;7.15;4.80;;;;;;;29.05;59.44;97974.63;5072412;28;20235;-74
2023/06/22 09:11:49;;;;;;;7.10;4.85;;;;;;;29.25;60.69;97980.69;5072877;28;20254;-76
2023/06/22 09:14:16;;;;;;;8.60;5.25;;;;;;;29.39;59.13;97981.34;5072774;28;20581;-76
2023/06/22 09:16:43;;;;;;;7.78;5.10;;;;;;;29.37;55.00;97959.81;5072755;28;20613;-76
2023/06/22 09:19:09;;;;;;;6.95;5.07;;;;;;;29.32;55.03;97970.56;5072610;28;20293;-76
2023/06/22 09:21:36;;;;;;;7.32;5.10;;;;;;;29.17;57.47;97991.88;5072691;28;20243;-76
2023/06/22 09:24:03;;;;;;;6.30;5.13;;;;;;;29.04;56.18;97972.97;5072746;28;20208;-76
2023/06/22 09:26:31;;;;;;;7.45;5.30;;;;;;;28.91;56.64;97956.75;5072615;28;20302;-76
2023/06/22 09:28:58;;;;;;;5.70;5.00;;;;;;;29.08;59.02;97978.78;5072509;28;20327;-76
2023/06/22 09:31:26;;;;;;;9.20;5.50;;;;;;;29.09;56.50;97966.88;5072110;28;20227;-76
2023/06/22 09:33:53;;;;;;;6.50;5.55;;;;;;;29.14;56.04;97958.81;5072649;28;20207;-76
2023/06/22 09:36:20;;;;;;;8.05;5.45;;;;;;;29.14;58.40;97956.09;5072562;28;20253;-76
2023/06/22 09:38:47;;;;;;;6.60;5.40;;;;;;;29.27;58.55;97951.34;5072432;28;20626;-76
2023/06/22 09:41:13;;;;;;;7.00;5.38;;;;;;;29.43;57.90;97939.84;5072094;28;20223;-76
2023/06/22 09:43:41;;;;;;;6.40;5.32;;;;;;;29.54;56.04;97930.09;5072379;28;20221;-76
2023/06/22 09:46:09;;;;;;;7.55;5.47;;;;;;;29.60;57.31;97931.91;5072161;28;20669;-76
2023/06/22 09:48:35;;;;;;;6.43;5.03;;;;;;;29.66;58.98;97936.41;5072362;28;20318;-76
2023/06/22 09:51:02;;;;;;;6.72;5.13;;;;;;;29.72;57.74;97935.50;5071821;28;20266;-76
2023/06/22 09:53:28;;;;;;;6.95;5.20;;;;;;;29.82;58.17;97933.88;5072089;28;20302;-76
2023/06/22 09:55:55;;;;;;;7.90;5.55;;;;;;;29.89;55.61;97912.00;5071948;28;20215;-76
2023/06/22 09:58:21;;;;;;;7.00;4.95;;;;;;;29.97;54.61;97892.56;5072093;28;20210;-76
2023/06/22 10:00:49;;;;;;;6.45;4.93;;;;;;;30.00;56.41;97898.38;5071494;28;20231;-76
2023/06/22 10:03:16;;;;;;;6.97;5.15;;;;;;;30.14;59.83;97920.84;5072081;28;20207;-76
2023/06/22 10:05:42;;;;;;;6.82;5.25;;;;;;;30.22;57.96;97907.69;5071850;28;20693;-76
2023/06/22 10:08:10;;;;;;;9.35;5.25;;;;;;;30.45;58.51;97906.88;5071840;28;20605;-76
2023/06/22 10:10:36;;;;;;;6.70;5.40;;;;;;;30.42;57.13;97901.88;5071364;28;20234;-77
2023/06/22 10:13:09;;;;;;;6.57;5.15;;;;;;;30.46;54.96;97886.72;5071679;28;20218;-77
2023/06/22 10:15:36;;;;;;;8.15;5.90;;;;;;;30.51;55.62;97889.56;5071384;28;20203;-77
2023/06/22 10:18:04;;;;;;;7.05;5.00;;;;;;;30.42;55.39;97896.44;5071211;28;20218;-77
2023/06/22 10:20:30;;;;;;;10.30;5.70;;;;;;;30.45;56.01;97890.53;5071463;28;20250;-77
2023/06/22 10:22:57;;;;;;;7.63;5.28;;;;;;;30.46;54.84;97870.34;5071610;28;20203;-77
2023/06/22 10:25:23;;;;;;;10.02;5.80;;;;;;;30.39;54.97;97873.19;5071509;28;20218;-76
2023/06/22 10:27:50;;;;;;;6.97;4.80;;;;;;;30.38;57.26;97898.00;5071377;28;20685;-77
2023/06/22 10:30:16;;;;;;;8.32;5.07;;;;;;;30.56;56.91;97886.97;5071295;28;20237;-76
2023/06/22 10:32:44;;;;;;;9.35;5.63;;;;;;;30.85;54.94;97869.63;5071635;28;20302;-76
2023/06/22 10:35:13;;;;;;;10.57;5.43;;;;;;;31.07;53.48;97867.91;5071417;28;20214;-77
2023/06/22 10:37:40;;;;;;;8.10;5.60;;;;;;;31.21;52.75;97863.88;5071481;28;20238;-77
2023/06/22 10:40:08;;;;;;;9.68;5.40;;;;;;;31.43;53.97;97873.06;5070949;28;20270;-76
2023/06/22 10:42:34;;;;;;;8.57;5.18;;;;;;;31.55;52.34;97849.25;5071629;28;20294;-76
2023/06/22 10:45:01;;;;;;;9.55;5.68;;;;;;;31.53;51.89;97848.69;5071251;28;20203;-77
2023/06/22 10:47:27;;;;;;;6.15;5.13;;;;;;;31.58;51.74;97837.81;5071420;28;20215;-77
2023/06/22 10:49:54;;;;;;;7.30;5.13;;;;;;;31.69;51.53;97845.13;5070844;28;20231;-77
2023/06/22 10:52:22;;;;;;;7.53;5.32;;;;;;;31.77;50.26;97833.81;5071146;28;20207;-77
2023/06/22 10:54:48;;;;;;;11.15;5.20;;;;;;;31.81;49.86;97835.00;5071099;28;20294;-77
2023/06/22 10:57:15;;;;;;;8.80;5.03;;;;;;;31.79;49.51;97823.47;5071086;28;20211;-77
2023/06/22 10:59:41;;;;;;;5.85;4.88;;;;;;;31.85;49.93;97828.78;5070965;28;20231;-77
2023/06/22 11:02:07;;;;;;;9.10;5.28;;;;;;;31.81;51.76;97844.03;5071070;28;20212;-77
2023/06/22 11:04:34;;;;;;;7.60;4.88;;;;;;;31.75;52.67;97846.91;5071053;28;20211;-77
2023/06/22 11:07:01;;;;;;;9.57;5.05;;;;;;;31.83;49.87;97830.94;5071017;28;20640;-77
2023/06/22 11:09:29;;;;;;;6.65;4.70;;;;;;;31.81;49.76;97824.91;5070463;28;20259;-77
2023/06/22 11:11:58;;;;;;;6.60;4.50;;;;;;;31.76;50.27;97829.44;5070957;28;20692;-77
2023/06/22 11:14:25;;;;;;;7.07;5.00;;;;;;;31.79;50.45;97828.94;5071018;28;20218;-77
2023/06/22 11:16:52;;;;;;;6.45;4.72;;;;;;;31.77;50.28;97833.81;5071098;28;20216;-77
2023/06/22 11:19:19;;;;;;;7.22;4.80;;;;;;;31.81;50.94;97833.09;5070695;28;20610;-77
2023/06/22 11:21:45;;;;;;;10.77;4.78;;;;;;;31.72;50.30;97825.56;5070783;28;20208;-77
2023/06/22 11:24:12;;;;;;;7.22;4.93;;;;;;;31.51;51.21;97842.59;5071227;28;20247;-77
2023/06/22 11:26:40;;;;;;;7.75;5.07;;;;;;;31.35;54.00;97855.16;5070803;28;20324;-76
2023/06/22 11:29:07;;;;;;;8.77;5.32;;;;;;;31.30;53.12;97851.50;5073704;28;20227;-77